Avent, Mississippi
Current Conditions -  °F | °C
As of 10:53 AM on Friday 31 Oct 2014 (Local Time) from KHBG Reporting Station
Clear Clear  
Wind Chill: 19°   Ceiling: Unl
Heat Index: 19°   Visibility: 10mi
Dew Point:   Wind: 7mph
Humidity: 54%   Direction: 310°NW
Pressure: 30.03"   Gusts: NA
Location:  31.0532°N, 88.8084°W
Report Text: KHBG 311553Z AUTO 31006KT 10SM CLR 19/09 A3003 RMK AO2 SLP169 T01890094
Loading
Personal Weather Stations






























Interactive Weather Map
Tropical Storm Tracking
New forecast layout! Learn more

10-Day Weather Forecast

Advertisements
Track Severe Weather on mobile